Time;durP1;ratioP1;P1;durP2;ratioP2;P2;SDS_P1;SDS_P2;PMS_P1;PMS_P2;Temp;Humidity;BMP_temperature;BMP_pressure;BME280_temperature;BME280_humidity;BME280_pressure;Samples;Min_cycle;Max_cycle;Signal;HPM_P1;HPM_P2
2023/06/12 00:00:42;;;;;;;4.45;2.28;;;17.90;99.90;;;;;;5054535;28;20356;-72
2023/06/12 00:03:08;;;;;;;4.65;2.15;;;17.90;99.90;;;;;;5059631;28;20090;-72
2023/06/12 00:05:34;;;;;;;4.18;2.17;;;17.90;99.90;;;;;;5060655;28;20032;-72
2023/06/12 00:08:00;;;;;;;4.15;2.00;;;17.80;99.90;;;;;;5058499;28;20028;-72
2023/06/12 00:10:26;;;;;;;3.92;2.05;;;17.70;99.90;;;;;;5059675;28;20493;-71
2023/06/12 00:12:52;;;;;;;4.03;1.98;;;17.60;99.90;;;;;;5060164;28;20032;-72
2023/06/12 00:15:18;;;;;;;3.58;1.90;;;17.70;99.90;;;;;;5061485;28;20043;-72
2023/06/12 00:17:44;;;;;;;3.58;1.80;;;17.60;99.90;;;;;;5059715;28;20036;-72
2023/06/12 00:20:10;;;;;;;4.07;2.30;;;17.50;99.90;;;;;;5059584;28;20074;-72
2023/06/12 00:22:39;;;;;;;3.38;2.08;;;17.40;99.90;;;;;;5064244;28;20124;-71
2023/06/12 00:25:09;;;;;;;3.70;2.15;;;17.30;99.90;;;;;;5049990;28;20025;-71
2023/06/12 00:27:35;;;;;;;4.03;2.13;;;17.20;99.90;;;;;;5060511;28;20059;-71
2023/06/12 00:30:02;;;;;;;5.70;2.25;;;17.10;99.90;;;;;;5058640;28;20068;-71
2023/06/12 00:32:28;;;;;;;4.05;2.38;;;17.20;99.90;;;;;;5057994;28;20028;-72
2023/06/12 00:34:53;;;;;;;3.22;1.77;;;17.30;99.90;;;;;;5052827;28;20078;-71
2023/06/12 00:37:19;;;;;;;4.88;2.80;;;17.20;99.90;;;;;;5059299;28;20115;-72
2023/06/12 00:39:45;;;;;;;7.75;2.47;;;17.10;99.90;;;;;;5055614;28;20036;-72
2023/06/12 00:42:10;;;;;;;4.57;2.50;;;17.30;99.90;;;;;;5060903;28;20032;-72
2023/06/12 00:44:36;;;;;;;7.47;2.80;;;17.30;99.90;;;;;;5053419;28;20053;-71
2023/06/12 00:47:03;;;;;;;3.60;2.20;;;17.30;99.90;;;;;;5055374;28;20029;-72
2023/06/12 00:49:29;;;;;;;3.90;2.22;;;17.40;99.90;;;;;;5053432;28;20109;-72
2023/06/12 00:51:55;;;;;;;4.82;2.25;;;17.40;99.90;;;;;;5059704;28;20115;-71
2023/06/12 00:54:22;;;;;;;5.47;2.35;;;17.40;99.90;;;;;;5060078;28;20107;-71
2023/06/12 00:56:48;;;;;;;4.78;2.45;;;17.30;99.90;;;;;;5053342;28;20044;-72
2023/06/12 00:59:14;;;;;;;3.70;1.90;;;17.20;99.90;;;;;;5058795;28;20041;-72
2023/06/12 01:01:40;;;;;;;6.30;2.80;;;17.30;99.90;;;;;;5052083;28;20032;-71
2023/06/12 01:04:09;;;;;;;6.00;2.25;;;17.20;99.90;;;;;;5053330;28;20435;-72
2023/06/12 01:06:44;;;;;;;3.20;2.05;;;17.10;99.90;;;;;;5053489;28;20414;-71
2023/06/12 01:09:16;;;;;;;3.88;1.95;;;17.00;99.90;;;;;;5063376;28;20031;-72
2023/06/12 01:11:43;;;;;;;4.97;2.28;;;17.00;99.90;;;;;;5063004;28;20028;-72
2023/06/12 01:14:13;;;;;;;4.78;2.20;;;17.00;99.90;;;;;;5054982;28;20033;-71
2023/06/12 01:16:40;;;;;;;4.47;2.67;;;16.90;99.90;;;;;;5056682;28;20047;-70
2023/06/12 01:19:07;;;;;;;5.60;2.30;;;16.80;99.90;;;;;;5052556;28;20033;-71
2023/06/12 01:21:33;;;;;;;4.60;2.03;;;16.80;99.90;;;;;;5057645;28;20486;-71
2023/06/12 01:24:37;;;;;;;3.80;2.30;;;16.80;99.90;;;;;;5057314;28;20033;-70
2023/06/12 01:27:06;;;;;;;4.07;1.98;;;16.70;99.90;;;;;;5062845;28;20099;-70
2023/06/12 01:29:32;;;;;;;5.40;2.50;;;16.70;99.90;;;;;;5053817;28;20036;-71
2023/06/12 01:32:12;;;;;;;4.65;2.30;;;16.60;99.90;;;;;;5061691;28;20024;-70
2023/06/12 01:34:50;;;;;;;5.13;2.53;;;16.50;99.90;;;;;;5063342;28;20041;-70
2023/06/12 01:37:26;;;;;;;4.25;2.50;;;16.50;99.90;;;;;;5052696;28;20043;-71
2023/06/12 01:39:57;;;;;;;3.60;2.33;;;16.60;99.90;;;;;;5055880;28;20072;-70
2023/06/12 01:42:27;;;;;;;5.05;2.05;;;16.70;99.90;;;;;;5056629;28;20024;-71
2023/06/12 01:44:53;;;;;;;3.55;2.13;;;16.70;99.90;;;;;;5054623;28;20099;-71
2023/06/12 01:47:20;;;;;;;7.53;2.72;;;16.70;99.90;;;;;;5065252;28;20551;-71
2023/06/12 01:49:46;;;;;;;5.25;2.38;;;16.70;99.90;;;;;;5054488;28;20107;-71
2023/06/12 01:52:12;;;;;;;5.03;2.50;;;16.60;99.90;;;;;;5060157;28;20115;-70
2023/06/12 01:54:37;;;;;;;4.90;2.60;;;16.60;99.90;;;;;;5062916;28;20119;-71
2023/06/12 01:57:03;;;;;;;5.95;2.30;;;16.50;99.90;;;;;;5056570;28;20395;-71
2023/06/12 01:59:29;;;;;;;4.85;2.60;;;16.50;99.90;;;;;;5063219;28;20044;-71
2023/06/12 02:01:55;;;;;;;6.18;2.40;;;16.70;99.90;;;;;;5059955;28;20376;-71
2023/06/12 02:04:20;;;;;;;6.65;2.75;;;16.50;99.90;;;;;;5059861;28;20032;-71
2023/06/12 02:06:46;;;;;;;5.30;2.10;;;16.50;99.90;;;;;;5061822;28;20021;-71
2023/06/12 02:09:12;;;;;;;5.55;2.40;;;16.50;99.90;;;;;;5061090;28;20574;-71
2023/06/12 02:11:39;;;;;;;4.82;2.50;;;16.50;99.90;;;;;;5061538;28;20441;-70
2023/06/12 02:14:05;;;;;;;4.13;2.35;;;16.60;99.90;;;;;;5052876;28;20025;-70
2023/06/12 02:16:30;;;;;;;3.30;1.90;;;16.50;99.90;;;;;;5059088;28;20024;-71
2023/06/12 02:18:56;;;;;;;5.93;2.60;;;16.60;99.90;;;;;;5057496;28;20048;-71
2023/06/12 02:21:22;;;;;;;4.00;2.17;;;16.60;99.90;;;;;;5061131;28;20036;-71
2023/06/12 02:23:48;;;;;;;4.55;2.20;;;16.70;99.90;;;;;;5055231;28;20033;-70
2023/06/12 02:26:14;;;;;;;3.85;2.13;;;16.70;99.90;;;;;;5059175;28;20029;-71
2023/06/12 02:28:42;;;;;;;5.85;2.13;;;16.80;99.90;;;;;;5063388;28;20397;-70
2023/06/12 02:31:08;;;;;;;4.32;2.30;;;16.60;99.90;;;;;;5056537;28;20025;-71
2023/06/12 02:33:33;;;;;;;4.57;1.95;;;16.50;99.90;;;;;;5055519;28;20032;-70
2023/06/12 02:35:59;;;;;;;5.45;2.10;;;16.50;99.90;;;;;;5057806;28;20811;-71
2023/06/12 02:38:26;;;;;;;5.45;2.30;;;16.60;99.90;;;;;;5063449;28;20502;-71
2023/06/12 02:40:51;;;;;;;5.25;2.60;;;16.50;99.90;;;;;;5058733;28;20036;-71
2023/06/12 02:43:17;;;;;;;5.88;2.67;;;16.50;99.90;;;;;;5063887;28;20449;-70
2023/06/12 02:45:43;;;;;;;3.65;2.00;;;16.60;99.90;;;;;;5059030;28;20028;-71
2023/06/12 02:48:08;;;;;;;5.88;2.45;;;16.70;99.90;;;;;;5057562;28;20065;-70
2023/06/12 02:50:34;;;;;;;3.75;2.17;;;16.60;99.90;;;;;;5058006;28;20103;-71
2023/06/12 02:52:59;;;;;;;6.45;3.10;;;16.60;99.90;;;;;;5061612;28;20111;-70
2023/06/12 02:55:25;;;;;;;4.13;2.25;;;16.40;99.90;;;;;;5054853;28;20064;-71
2023/06/12 02:57:52;;;;;;;5.03;2.42;;;16.30;99.90;;;;;;5061699;28;20052;-71
2023/06/12 03:00:18;;;;;;;3.85;2.40;;;16.20;99.90;;;;;;5055065;28;20143;-71
2023/06/12 03:02:47;;;;;;;3.92;2.45;;;16.20;99.90;;;;;;5061354;28;20099;-71
2023/06/12 03:05:14;;;;;;;3.90;2.20;;;16.10;99.90;;;;;;5048766;28;20021;-71
2023/06/12 03:07:41;;;;;;;4.07;2.58;;;16.10;99.90;;;;;;5050523;28;20039;-70
2023/06/12 03:10:08;;;;;;;4.47;2.28;;;16.10;99.90;;;;;;5051247;28;20021;-71
2023/06/12 03:12:34;;;;;;;3.65;2.17;;;16.20;99.90;;;;;;5055885;28;20060;-70
2023/06/12 03:15:00;;;;;;;4.03;2.45;;;16.20;99.90;;;;;;5049724;28;20028;-71
2023/06/12 03:17:26;;;;;;;4.55;2.65;;;16.20;99.90;;;;;;5054035;28;20036;-71
2023/06/12 03:19:51;;;;;;;4.63;2.22;;;16.30;99.90;;;;;;5049732;28;20567;-71
2023/06/12 03:22:17;;;;;;;5.47;2.72;;;16.40;99.90;;;;;;5054048;28;20725;-70
2023/06/12 03:24:43;;;;;;;4.90;2.53;;;16.60;99.90;;;;;;5051112;28;20080;-71
2023/06/12 03:27:10;;;;;;;5.75;3.28;;;16.70;99.90;;;;;;5055179;28;20390;-70
2023/06/12 03:29:36;;;;;;;5.35;2.63;;;16.70;99.90;;;;;;5050640;28;20425;-71
2023/06/12 03:32:01;;;;;;;5.13;2.50;;;16.70;99.90;;;;;;5057972;28;20135;-71
2023/06/12 03:34:28;;;;;;;4.45;2.47;;;16.70;99.90;;;;;;5054884;28;20608;-70
2023/06/12 03:36:54;;;;;;;8.13;2.50;;;16.60;99.90;;;;;;5056265;28;20914;-71
2023/06/12 03:39:20;;;;;;;4.07;2.20;;;16.30;99.90;;;;;;5052440;28;20041;-71
2023/06/12 03:41:56;;;;;;;4.00;2.40;;;15.90;99.90;;;;;;5056531;28;20037;-70
2023/06/12 03:44:22;;;;;;;5.88;2.92;;;15.80;99.90;;;;;;5056437;28;20021;-71
2023/06/12 03:46:47;;;;;;;4.47;2.78;;;15.90;99.90;;;;;;5048623;28;20078;-71
2023/06/12 03:49:13;;;;;;;4.10;2.30;;;16.00;99.90;;;;;;5060339;28;20435;-70
2023/06/12 03:51:39;;;;;;;4.18;2.67;;;15.90;99.90;;;;;;5050323;28;20033;-71
2023/06/12 03:54:06;;;;;;;7.57;2.83;;;16.00;99.90;;;;;;5053273;28;20020;-70
2023/06/12 03:56:32;;;;;;;7.45;2.50;;;16.00;99.90;;;;;;5055707;28;20124;-70
2023/06/12 03:58:58;;;;;;;6.47;2.30;;;16.00;99.90;;;;;;5050249;28;20245;-70
2023/06/12 04:01:24;;;;;;;5.50;2.78;;;16.00;99.90;;;;;;5052048;28;20491;-71
2023/06/12 04:03:51;;;;;;;4.47;2.38;;;15.90;99.90;;;;;;5044866;28;20128;-71
2023/06/12 04:06:16;;;;;;;4.97;2.38;;;16.00;99.90;;;;;;5053947;28;20087;-70
2023/06/12 04:08:44;;;;;;;4.53;2.80;;;16.00;99.90;;;;;;5042780;28;20366;-70
2023/06/12 04:11:13;;;;;;;4.32;2.53;;;16.00;99.90;;;;;;5043035;28;20108;-70
2023/06/12 04:13:39;;;;;;;5.00;2.67;;;16.00;99.90;;;;;;5047525;28;20603;-71
2023/06/12 04:16:05;;;;;;;4.13;2.55;;;15.90;99.90;;;;;;5049057;28;20032;-70
2023/06/12 04:18:31;;;;;;;5.85;2.78;;;15.90;99.90;;;;;;5043872;28;20495;-71
2023/06/12 04:20:57;;;;;;;7.25;2.85;;;15.90;99.90;;;;;;5052482;28;20035;-71
2023/06/12 04:23:29;;;;;;;4.22;2.60;;;15.80;99.90;;;;;;5051864;28;20025;-70
2023/06/12 04:26:15;;;;;;;5.85;2.83;;;15.80;99.90;;;;;;5051874;28;20066;-70
2023/06/12 04:28:41;;;;;;;5.80;3.03;;;15.70;99.90;;;;;;5051345;28;20033;-71
2023/06/12 04:31:08;;;;;;;6.85;2.97;;;15.70;99.90;;;;;;5051243;28;20114;-71
2023/06/12 04:33:35;;;;;;;4.10;2.50;;;15.70;99.90;;;;;;5051630;28;20025;-72
2023/06/12 04:36:02;;;;;;;4.53;2.95;;;15.60;99.90;;;;;;5046660;28;20074;-72
2023/06/12 04:38:30;;;;;;;4.15;2.60;;;15.80;99.90;;;;;;5053007;28;20045;-71
2023/06/12 04:40:58;;;;;;;6.20;3.00;;;15.80;99.90;;;;;;5053140;28;20974;-71
2023/06/12 04:43:24;;;;;;;6.03;2.78;;;16.00;99.90;;;;;;5051223;28;20051;-71
2023/06/12 04:45:51;;;;;;;5.05;3.10;;;16.10;99.90;;;;;;5042065;28;20032;-71
2023/06/12 04:48:18;;;;;;;5.22;3.33;;;16.20;99.90;;;;;;5044301;28;20028;-71
2023/06/12 04:50:47;;;;;;;5.00;3.20;;;16.30;99.90;;;;;;5046298;28;20064;-71
2023/06/12 04:53:17;;;;;;;5.20;2.80;;;16.30;99.90;;;;;;5049206;28;20060;-72
2023/06/12 04:55:44;;;;;;;4.60;3.05;;;16.40;99.90;;;;;;5049717;28;20020;-72
2023/06/12 04:58:10;;;;;;;7.75;3.65;;;16.50;99.90;;;;;;5044611;28;20052;-71
2023/06/12 05:00:36;;;;;;;4.22;2.83;;;16.40;99.90;;;;;;5046104;28;20021;-72
2023/06/12 05:03:02;;;;;;;4.97;2.70;;;16.20;99.90;;;;;;5046989;28;20430;-71
2023/06/12 05:05:29;;;;;;;5.03;2.80;;;16.30;99.90;;;;;;5046457;28;20160;-71
2023/06/12 05:07:54;;;;;;;7.00;2.90;;;16.20;99.90;;;;;;5047613;28;20031;-71
2023/06/12 05:10:20;;;;;;;7.72;3.17;;;16.20;99.90;;;;;;5051973;28;20028;-72
2023/06/12 05:12:46;;;;;;;9.00;3.10;;;16.20;99.90;;;;;;5046846;28;20020;-71
2023/06/12 05:15:11;;;;;;;4.68;2.90;;;16.30;99.90;;;;;;5051402;28;20071;-72
2023/06/12 05:17:38;;;;;;;4.70;2.80;;;16.40;99.90;;;;;;5050192;28;20033;-72
2023/06/12 05:20:08;;;;;;;5.45;3.30;;;16.40;99.90;;;;;;5047036;28;20494;-71
2023/06/12 05:22:35;;;;;;;5.20;2.97;;;16.50;99.90;;;;;;5048344;28;20469;-71
2023/06/12 05:25:00;;;;;;;5.82;3.00;;;16.60;99.90;;;;;;5056747;28;20032;-71
2023/06/12 05:27:26;;;;;;;4.50;2.92;;;16.80;99.90;;;;;;5045884;28;20033;-71
2023/06/12 05:29:51;;;;;;;7.18;2.95;;;16.90;99.90;;;;;;5052482;28;20025;-74
2023/06/12 05:32:17;;;;;;;6.95;4.13;;;16.90;99.90;;;;;;5049140;28;20079;-73
2023/06/12 05:34:43;;;;;;;5.63;3.05;;;17.00;99.90;;;;;;5053086;28;20820;-73
2023/06/12 05:37:08;;;;;;;5.18;2.67;;;17.10;99.90;;;;;;5049055;28;20082;-74
2023/06/12 05:39:34;;;;;;;6.85;3.40;;;17.00;99.90;;;;;;5058098;28;20044;-73
2023/06/12 05:41:59;;;;;;;6.32;3.15;;;17.10;99.90;;;;;;5057301;28;20036;-73
2023/06/12 05:44:25;;;;;;;6.70;3.25;;;17.10;99.90;;;;;;5052576;28;20025;-73
2023/06/12 05:46:52;;;;;;;6.47;3.08;;;17.10;99.90;;;;;;5051500;28;20406;-74
2023/06/12 05:49:18;;;;;;;4.57;2.83;;;17.10;99.90;;;;;;5051094;28;20613;-73
2023/06/12 05:51:44;;;;;;;6.30;2.83;;;17.20;99.90;;;;;;5045161;28;20154;-73
2023/06/12 05:54:09;;;;;;;5.55;2.97;;;17.20;99.90;;;;;;5045204;28;20527;-73
2023/06/12 05:56:35;;;;;;;10.32;3.30;;;17.20;99.90;;;;;;5056352;28;20024;-74
2023/06/12 05:59:00;;;;;;;6.40;2.97;;;17.30;99.90;;;;;;5056157;28;20048;-73
2023/06/12 06:01:26;;;;;;;4.22;2.83;;;17.40;99.90;;;;;;5055073;28;20040;-73
2023/06/12 06:03:52;;;;;;;4.40;2.50;;;17.40;99.90;;;;;;5051262;28;20478;-73
2023/06/12 06:06:18;;;;;;;7.88;3.20;;;17.50;99.90;;;;;;5052683;28;20032;-73
2023/06/12 06:08:44;;;;;;;5.35;2.38;;;17.50;99.90;;;;;;5043080;28;20029;-73
2023/06/12 06:11:10;;;;;;;5.00;2.88;;;17.50;99.90;;;;;;5043272;28;20639;-73
2023/06/12 06:13:36;;;;;;;5.28;3.20;;;17.60;99.90;;;;;;5048970;28;20028;-74
2023/06/12 06:16:02;;;;;;;5.20;2.75;;;17.60;99.90;;;;;;5048830;28;20060;-73
2023/06/12 06:18:29;;;;;;;6.32;3.10;;;17.60;99.90;;;;;;5051434;28;20110;-73
2023/06/12 06:20:54;;;;;;;5.47;3.17;;;17.70;99.90;;;;;;5052396;28;20036;-73
2023/06/12 06:23:21;;;;;;;4.50;2.47;;;17.80;99.90;;;;;;5046907;28;20025;-73
2023/06/12 06:25:47;;;;;;;6.75;3.10;;;17.80;99.90;;;;;;5053238;28;20024;-73
2023/06/12 06:28:14;;;;;;;6.10;3.20;;;17.90;99.90;;;;;;5043556;28;20029;-73
2023/06/12 06:30:39;;;;;;;4.60;2.88;;;17.90;99.90;;;;;;5051197;28;20051;-73
2023/06/12 06:33:05;;;;;;;4.22;2.47;;;18.00;99.90;;;;;;5045957;28;20029;-73
2023/06/12 06:35:30;;;;;;;4.72;2.72;;;18.00;99.90;;;;;;5045861;28;20029;-73
2023/06/12 06:37:56;;;;;;;5.47;3.08;;;18.10;99.90;;;;;;5049309;28;20040;-73
2023/06/12 06:40:22;;;;;;;5.40;3.25;;;18.10;99.90;;;;;;5047761;28;20040;-73
2023/06/12 06:42:47;;;;;;;4.55;2.50;;;18.10;99.90;;;;;;5049258;28;20419;-73
2023/06/12 06:45:13;;;;;;;5.68;2.60;;;18.20;99.90;;;;;;5055077;28;20525;-73
2023/06/12 06:47:39;;;;;;;5.13;2.80;;;18.20;99.90;;;;;;5062791;28;20041;-73
2023/06/12 06:50:05;;;;;;;8.93;3.33;;;18.30;99.90;;;;;;5050528;28;20036;-73
2023/06/12 06:52:31;;;;;;;5.22;2.88;;;18.40;99.90;;;;;;5054616;28;20107;-73
2023/06/12 06:54:56;;;;;;;4.93;2.85;;;18.50;99.90;;;;;;5059391;28;20178;-72
2023/06/12 06:57:23;;;;;;;5.13;2.47;;;18.60;99.90;;;;;;5051299;28;20130;-72
2023/06/12 06:59:48;;;;;;;4.10;2.65;;;18.70;99.90;;;;;;5049660;28;20098;-73
2023/06/12 07:02:14;;;;;;;4.95;3.10;;;18.80;99.90;;;;;;5043230;28;20534;-73
2023/06/12 07:04:40;;;;;;;4.63;3.17;;;19.10;99.90;;;;;;5045268;28;20059;-72
2023/06/12 07:07:06;;;;;;;6.07;2.58;;;19.40;99.90;;;;;;5055808;28;20025;-73
2023/06/12 07:09:31;;;;;;;4.10;2.45;;;19.70;99.90;;;;;;5047191;28;20052;-73
2023/06/12 07:11:57;;;;;;;4.18;2.65;;;19.90;99.90;;;;;;5055842;28;20036;-73
2023/06/12 07:14:22;;;;;;;5.47;2.92;;;20.10;99.90;;;;;;5050936;28;20470;-73
2023/06/12 07:16:48;;;;;;;4.60;2.88;;;20.30;99.90;;;;;;5055881;28;20020;-73
2023/06/12 07:19:14;;;;;;;4.03;2.65;;;20.40;99.90;;;;;;5053492;28;20028;-73
2023/06/12 07:21:39;;;;;;;6.85;2.45;;;20.60;99.90;;;;;;5054926;28;20037;-73
2023/06/12 07:24:05;;;;;;;6.82;2.97;;;20.80;99.90;;;;;;5054018;28;20029;-73
2023/06/12 07:26:31;;;;;;;5.22;2.17;;;21.00;99.90;;;;;;5048330;28;20024;-74
2023/06/12 07:28:57;;;;;;;4.80;2.67;;;21.30;99.90;;;;;;5049327;28;20423;-74
2023/06/12 07:31:23;;;;;;;4.70;2.30;;;22.10;99.90;;;;;;5053693;28;20025;-73
2023/06/12 07:33:48;;;;;;;4.03;2.47;;;23.00;99.90;;;;;;5055764;28;20043;-74
2023/06/12 07:36:15;;;;;;;4.53;2.28;;;23.60;99.90;;;;;;5050976;28;20032;-74
2023/06/12 07:38:41;;;;;;;4.85;2.55;;;24.40;99.90;;;;;;5054108;28;20040;-74
2023/06/12 07:41:07;;;;;;;4.85;2.50;;;24.80;99.10;;;;;;5048611;28;20167;-74
2023/06/12 07:43:34;;;;;;;3.70;2.17;;;25.50;98.40;;;;;;5046884;28;20086;-75
2023/06/12 07:46:05;;;;;;;4.75;2.55;;;24.40;99.00;;;;;;5057305;28;20021;-74
2023/06/12 07:48:31;;;;;;;4.32;2.35;;;24.20;99.50;;;;;;5055095;28;20064;-74
2023/06/12 07:50:57;;;;;;;4.25;2.03;;;24.30;99.20;;;;;;5051405;28;20060;-74
2023/06/12 07:53:23;;;;;;;3.97;2.25;;;24.10;99.90;;;;;;5051937;28;20120;-74
2023/06/12 07:55:49;;;;;;;4.72;2.70;;;23.80;99.80;;;;;;5047541;28;20029;-74
2023/06/12 07:58:15;;;;;;;4.10;2.13;;;23.70;99.90;;;;;;5051478;28;20075;-74
2023/06/12 08:00:40;;;;;;;4.13;2.17;;;23.80;99.90;;;;;;5052307;28;20699;-74
2023/06/12 08:03:08;;;;;;;3.60;2.08;;;23.20;99.90;;;;;;5059802;28;20063;-74
2023/06/12 08:05:35;;;;;;;4.95;2.83;;;23.40;99.90;;;;;;5052576;28;20028;-74
2023/06/12 08:08:01;;;;;;;4.57;2.58;;;23.40;99.90;;;;;;5053260;28;20032;-75
2023/06/12 08:10:26;;;;;;;4.40;2.47;;;23.50;99.90;;;;;;5054119;28;20111;-74
2023/06/12 08:12:52;;;;;;;5.40;2.10;;;23.40;99.90;;;;;;5053019;28;20035;-75
2023/06/12 08:15:19;;;;;;;4.75;2.70;;;23.60;99.90;;;;;;5047634;28;20025;-74
2023/06/12 08:17:46;;;;;;;4.10;2.20;;;23.70;99.90;;;;;;5051006;28;20375;-75
2023/06/12 08:20:13;;;;;;;4.18;2.60;;;23.60;99.90;;;;;;5048893;28;21115;-75
2023/06/12 08:22:39;;;;;;;4.40;2.45;;;23.50;99.90;;;;;;5056211;28;20028;-75
2023/06/12 08:25:06;;;;;;;5.35;2.63;;;23.60;99.90;;;;;;5055399;28;20466;-74
2023/06/12 08:27:33;;;;;;;5.35;2.50;;;23.60;99.90;;;;;;5055031;28;20078;-74
2023/06/12 08:29:58;;;;;;;3.90;2.22;;;23.70;99.90;;;;;;5056041;28;20028;-74
2023/06/12 08:32:24;;;;;;;5.95;2.63;;;23.70;99.90;;;;;;5049526;28;20033;-74
2023/06/12 08:34:50;;;;;;;7.22;2.38;;;23.60;99.90;;;;;;5043150;28;20074;-74
2023/06/12 08:37:17;;;;;;;5.80;2.83;;;23.70;99.90;;;;;;5042030;28;20073;-75
2023/06/12 08:39:43;;;;;;;5.38;2.60;;;23.50;99.90;;;;;;5047923;28;20064;-74
2023/06/12 08:42:14;;;;;;;4.65;2.40;;;23.80;99.90;;;;;;5042421;28;20542;-75
2023/06/12 08:44:45;;;;;;;4.78;2.55;;;23.80;99.90;;;;;;5047174;28;20437;-74
2023/06/12 08:47:11;;;;;;;7.85;2.58;;;23.80;99.90;;;;;;5057604;28;20559;-75
2023/06/12 08:49:37;;;;;;;4.63;2.53;;;24.00;99.90;;;;;;5047877;28;20021;-75
2023/06/12 08:52:06;;;;;;;4.85;2.83;;;24.10;99.90;;;;;;5053846;28;20071;-74
2023/06/12 08:54:42;;;;;;;4.60;2.70;;;24.10;99.90;;;;;;5049610;28;20517;-75
2023/06/12 08:57:08;;;;;;;5.88;2.67;;;24.00;99.90;;;;;;5051685;28;20495;-74
2023/06/12 08:59:34;;;;;;;4.32;2.60;;;23.90;99.90;;;;;;5048191;28;20114;-75
2023/06/12 09:02:01;;;;;;;3.60;2.22;;;24.20;99.90;;;;;;5051271;28;20028;-74
2023/06/12 09:04:55;;;;;;;3.70;2.03;;;24.40;99.90;;;;;;5054290;28;20090;-75
2023/06/12 09:07:22;;;;;;;4.88;2.35;;;24.50;99.40;;;;;;5048436;28;20076;-75
2023/06/12 09:09:47;;;;;;;4.30;2.50;;;24.40;98.50;;;;;;5051439;28;20094;-74
2023/06/12 09:12:15;;;;;;;5.07;2.45;;;23.70;98.90;;;;;;5053583;28;20032;-74
2023/06/12 09:14:41;;;;;;;4.55;2.78;;;24.30;99.80;;;;;;5050293;28;20594;-74
2023/06/12 09:17:08;;;;;;;5.63;2.90;;;24.70;99.60;;;;;;5041034;28;20017;-75
2023/06/12 09:19:41;;;;;;;5.60;2.60;;;24.80;99.90;;;;;;5046857;28;20041;-74
2023/06/12 09:22:07;;;;;;;10.02;3.15;;;24.70;99.20;;;;;;5054613;28;20028;-74
2023/06/12 09:24:33;;;;;;;10.82;2.70;;;24.70;99.20;;;;;;5048301;28;20079;-75
2023/06/12 09:27:00;;;;;;;6.13;2.65;;;25.00;99.30;;;;;;5041225;28;20055;-74
2023/06/12 09:29:30;;;;;;;4.25;2.53;;;25.30;99.30;;;;;;5048284;28;20032;-75
2023/06/12 09:32:25;;;;;;;4.50;2.70;;;25.50;99.90;;;;;;5050210;28;20074;-74
2023/06/12 09:34:51;;;;;;;5.88;2.60;;;25.40;98.70;;;;;;5050024;28;20047;-74
2023/06/12 09:37:16;;;;;;;3.67;2.33;;;25.10;99.50;;;;;;5056435;28;20028;-75
2023/06/12 09:39:43;;;;;;;4.53;2.70;;;25.60;99.30;;;;;;5052316;28;20036;-75
2023/06/12 09:42:11;;;;;;;5.07;2.67;;;25.50;98.60;;;;;;5050107;28;20033;-74
2023/06/12 09:44:39;;;;;;;6.38;2.70;;;25.50;98.20;;;;;;5049196;28;20020;-74
2023/06/12 09:47:05;;;;;;;4.13;2.88;;;25.20;98.10;;;;;;5051007;28;20093;-75
2023/06/12 09:49:33;;;;;;;4.22;2.78;;;25.60;97.50;;;;;;5048216;28;20029;-75
2023/06/12 09:52:05;;;;;;;3.45;2.13;;;25.60;97.50;;;;;;5045832;28;20033;-75
2023/06/12 09:54:32;;;;;;;4.70;3.00;;;25.50;96.90;;;;;;5045991;28;20438;-74
2023/06/12 09:57:02;;;;;;;6.85;3.15;;;25.70;97.10;;;;;;5041393;28;20456;-74
2023/06/12 09:59:32;;;;;;;3.97;2.67;;;25.90;97.20;;;;;;5040279;28;20600;-75
2023/06/12 10:02:17;;;;;;;7.18;2.70;;;26.00;97.40;;;;;;5046022;28;20029;-75
2023/06/12 10:04:59;;;;;;;3.97;2.75;;;25.80;96.00;;;;;;5044617;28;20036;-75
2023/06/12 10:07:28;;;;;;;3.75;2.35;;;25.60;96.70;;;;;;5041178;28;20028;-75
2023/06/12 10:09:55;;;;;;;5.97;2.90;;;25.80;96.60;;;;;;5050352;28;20112;-74
2023/06/12 10:12:23;;;;;;;5.00;2.13;;;26.10;97.60;;;;;;5054108;28;20028;-75
2023/06/12 10:14:50;;;;;;;5.65;2.63;;;26.60;96.80;;;;;;5044938;28;20038;-75
2023/06/12 10:17:17;;;;;;;4.32;2.20;;;26.90;96.60;;;;;;5040328;28;20044;-75
2023/06/12 10:19:47;;;;;;;6.53;2.70;;;26.60;94.30;;;;;;5049897;28;20117;-75
2023/06/12 10:22:13;;;;;;;4.95;2.33;;;26.70;95.20;;;;;;5049894;28;20025;-75
2023/06/12 10:24:40;;;;;;;4.13;2.45;;;26.90;95.10;;;;;;5049898;28;20671;-75
2023/06/12 10:27:06;;;;;;;4.13;2.65;;;27.10;95.40;;;;;;5057816;28;20020;-75
2023/06/12 10:29:36;;;;;;;4.28;2.65;;;26.80;94.40;;;;;;5046895;28;20033;-75
2023/06/12 10:32:10;;;;;;;5.07;2.53;;;26.80;94.40;;;;;;5049380;28;20033;-75
2023/06/12 10:34:45;;;;;;;5.95;2.50;;;27.10;94.00;;;;;;5047184;28;20064;-75
2023/06/12 10:37:42;;;;;;;3.53;2.20;;;27.50;94.40;;;;;;5048233;28;20037;-75
2023/06/12 10:40:12;;;;;;;5.15;2.88;;;27.20;94.30;;;;;;5050415;28;20055;-75
2023/06/12 10:42:54;;;;;;;3.80;2.42;;;27.00;94.00;;;;;;5051150;28;20494;-75
2023/06/12 10:45:22;;;;;;;5.22;2.50;;;26.70;94.30;;;;;;5048887;28;20077;-74
2023/06/12 10:48:06;;;;;;;5.90;2.38;;;27.00;93.30;;;;;;5047039;28;20033;-75
2023/06/12 10:50:36;;;;;;;4.55;2.65;;;27.00;93.70;;;;;;5061143;28;20039;-75
2023/06/12 10:53:06;;;;;;;4.18;2.50;;;26.70;93.60;;;;;;5049125;28;20025;-75
2023/06/12 10:55:36;;;;;;;3.80;2.60;;;27.00;94.30;;;;;;5048498;28;20044;-75
2023/06/12 10:58:07;;;;;;;3.95;2.70;;;27.00;95.50;;;;;;5049978;28;20041;-75
2023/06/12 11:00:58;;;;;;;3.95;2.47;;;26.90;94.70;;;;;;5052067;28;20391;-75
2023/06/12 11:03:25;;;;;;;3.78;2.25;;;27.00;95.60;;;;;;5053750;28;20620;-75
2023/06/12 11:05:58;;;;;;;4.53;2.70;;;27.30;94.90;;;;;;5045060;28;20025;-75
2023/06/12 11:08:27;;;;;;;5.40;2.90;;;27.50;95.20;;;;;;5054261;28;20017;-75
2023/06/12 11:10:53;;;;;;;6.53;2.97;;;27.40;94.50;;;;;;5047015;28;20104;-75
2023/06/12 11:13:24;;;;;;;4.28;3.10;;;27.50;94.70;;;;;;5050436;28;20107;-73
2023/06/12 11:15:51;;;;;;;4.05;3.00;;;27.50;93.60;;;;;;5056629;28;20093;-74
2023/06/12 11:18:18;;;;;;;4.25;2.28;;;27.50;93.90;;;;;;5055759;28;20028;-73
2023/06/12 11:20:53;;;;;;;3.08;1.98;;;27.50;93.50;;;;;;5048129;28;20040;-72
2023/06/12 11:23:27;;;;;;;5.30;3.22;;;27.80;93.50;;;;;;5055572;28;20107;-73
2023/06/12 11:25:55;;;;;;;4.18;2.10;;;28.20;93.40;;;;;;5055514;28;20033;-75
2023/06/12 11:28:25;;;;;;;3.83;2.30;;;28.30;92.80;;;;;;5044770;28;20074;-76
2023/06/12 11:30:53;;;;;;;3.88;2.28;;;27.70;93.10;;;;;;5048380;28;20035;-75
2023/06/12 11:33:20;;;;;;;5.20;2.40;;;27.90;94.00;;;;;;5047828;28;20479;-75
2023/06/12 11:35:48;;;;;;;5.03;2.30;;;28.20;93.30;;;;;;5048696;28;20055;-75
2023/06/12 11:38:21;;;;;;;4.32;2.78;;;28.30;93.80;;;;;;5058955;28;20024;-76
2023/06/12 11:40:48;;;;;;;3.92;2.70;;;28.10;93.50;;;;;;5050033;28;20017;-75
2023/06/12 11:43:23;;;;;;;3.38;2.22;;;28.40;95.10;;;;;;5044036;28;20123;-75
2023/06/12 11:45:51;;;;;;;3.97;2.03;;;28.60;93.30;;;;;;5055547;28;20400;-75
2023/06/12 11:48:18;;;;;;;6.22;2.88;;;28.70;92.30;;;;;;5051545;28;20619;-75
2023/06/12 11:50:48;;;;;;;4.00;2.72;;;28.80;92.20;;;;;;5055594;28;20032;-75
2023/06/12 11:53:15;;;;;;;3.85;2.50;;;28.80;93.10;;;;;;5050617;28;20025;-76
2023/06/12 11:55:41;;;;;;;4.07;2.70;;;28.90;92.60;;;;;;5051687;28;20033;-76
2023/06/12 11:58:07;;;;;;;3.83;2.53;;;28.90;93.10;;;;;;5049389;28;20041;-75
2023/06/12 12:00:34;;;;;;;3.92;2.65;;;28.80;93.20;;;;;;5050441;28;20051;-75
2023/06/12 12:03:03;;;;;;;5.18;2.38;;;28.40;92.50;;;;;;5047835;28;20052;-75
2023/06/12 12:05:37;;;;;;;4.18;2.53;;;28.50;93.00;;;;;;5048376;28;20123;-75
2023/06/12 12:08:04;;;;;;;4.65;2.88;;;28.40;93.80;;;;;;5044726;28;20036;-75
2023/06/12 12:10:40;;;;;;;7.28;2.35;;;28.70;93.40;;;;;;5048933;28;20055;-74
2023/06/12 12:13:06;;;;;;;6.47;2.67;;;28.80;92.40;;;;;;5045860;28;20502;-74
2023/06/12 12:15:38;;;;;;;4.60;2.72;;;28.40;92.10;;;;;;5040131;28;20032;-74
2023/06/12 12:18:04;;;;;;;4.43;2.60;;;28.30;92.20;;;;;;5045575;28;20071;-74
2023/06/12 12:20:30;;;;;;;5.95;2.65;;;28.20;92.60;;;;;;5041087;28;20041;-74
2023/06/12 12:22:58;;;;;;;4.28;2.72;;;28.10;92.30;;;;;;5047392;28;20021;-74
2023/06/12 12:25:26;;;;;;;5.95;2.33;;;28.10;92.20;;;;;;5053976;28;20025;-74
2023/06/12 12:27:53;;;;;;;4.80;2.60;;;28.40;92.10;;;;;;5042475;28;20039;-75
2023/06/12 12:30:23;;;;;;;5.15;2.45;;;28.30;92.10;;;;;;5045555;28;20028;-74
2023/06/12 12:32:51;;;;;;;3.45;2.25;;;28.60;92.10;;;;;;5047154;28;20059;-74
2023/06/12 12:35:17;;;;;;;5.70;2.42;;;28.70;91.80;;;;;;5047010;28;20028;-74
2023/06/12 12:37:43;;;;;;;4.00;2.13;;;28.60;91.20;;;;;;5049663;28;20041;-74
2023/06/12 12:40:10;;;;;;;5.18;2.30;;;28.30;91.50;;;;;;5041970;28;20037;-74
2023/06/12 12:42:38;;;;;;;6.47;2.65;;;28.10;91.70;;;;;;5058300;28;20111;-74
2023/06/12 12:45:04;;;;;;;4.22;2.63;;;28.00;91.60;;;;;;5043821;28;20029;-74
2023/06/12 12:47:30;;;;;;;3.42;2.30;;;28.10;91.60;;;;;;5043818;28;20489;-74